Germfask, Michigan
Current Conditions -  °F | °C
As of 1:54 PM on Monday 20 Oct 2014 (Local Time) from KISQ Reporting Station
Overcast Overcast  
Wind Chill: 42°   Ceiling: 1600
Heat Index: 48°   Visibility: 10mi
Dew Point: 42°   Wind: 16mph
Humidity: 80%   Direction: 320°NW
Pressure: 29.81"   Gusts: 26mph
Location:  46.25°N, 85.93°W
Report Text: KISQ 201754Z AUTO 32014G23KT 10SM OVC016 09/06 A2981 RMK AO2 T00900057
Loading
Personal Weather Stations






























Interactive Weather Map
Tropical Storm Tracking
New forecast layout! Learn more

10-Day Weather Forecast

Advertisements
Track Severe Weather on mobile